Time;durP1;ratioP1;P1;durP2;ratioP2;P2;SDS_P1;SDS_P2;PMS_P1;PMS_P2;Temp;Humidity;BMP_temperature;BMP_pressure;BME280_temperature;BME280_humidity;BME280_pressure;Samples;Min_cycle;Max_cycle;Signal;HPM_P1;HPM_P2
2022/11/16 00:00:13;;;;;;;10.27;6.38;;;;;;;14.57;100.00;101324.63;2107436;28;20117;-73
2022/11/16 00:01:34;;;;;;;11.43;6.35;;;;;;;14.56;100.00;101320.19;2085244;28;20141;-73
2022/11/16 00:02:57;;;;;;;12.30;5.78;;;;;;;14.55;100.00;101321.03;2094256;28;20055;-73
2022/11/16 00:04:19;;;;;;;10.38;6.47;;;;;;;14.56;100.00;101328.16;2104435;28;20075;-73
2022/11/16 00:05:40;;;;;;;9.38;5.80;;;;;;;14.58;100.00;101324.59;2095838;28;20064;-73
2022/11/16 00:07:03;;;;;;;10.02;6.20;;;;;;;14.59;100.00;101320.19;2099000;28;20134;-73
2022/11/16 00:08:25;;;;;;;12.38;6.38;;;;;;;14.62;100.00;101317.56;2092208;28;20550;-72
2022/11/16 00:09:47;;;;;;;;;;;;;;;14.61;100.00;101321.09;2099294;28;20412;-73
2022/11/16 00:11:11;;;;;;;10.27;6.55;;;;;;;14.64;100.00;101318.44;2107785;28;19923;-72
2022/11/16 00:12:33;;;;;;;9.07;6.00;;;;;;;14.69;100.00;101314.09;2110280;28;20036;-73
2022/11/16 00:13:54;;;;;;;11.85;6.50;;;;;;;14.73;100.00;101308.78;2109870;28;20063;-73
2022/11/16 00:15:18;;;;;;;11.40;5.85;;;;;;;14.77;100.00;101311.47;2109862;28;20139;-73
2022/11/16 00:16:41;;;;;;;8.98;6.07;;;;;;;14.82;100.00;101310.63;2093425;28;20095;-73
2022/11/16 00:18:03;;;;;;;10.48;5.97;;;;;;;14.85;100.00;101310.63;2094321;28;20562;-73
2022/11/16 00:19:27;;;;;;;11.52;5.80;;;;;;;14.89;100.00;101307.16;2109940;28;20079;-73
2022/11/16 00:20:48;;;;;;;11.48;5.70;;;;;;;14.93;100.00;101302.72;2095601;28;20040;-73
2022/11/16 00:22:11;;;;;;;10.98;6.32;;;;;;;14.96;100.00;101311.63;2098751;28;20706;-73
2022/11/16 00:23:35;;;;;;;11.88;6.25;;;;;;;15.00;100.00;101301.88;2092004;28;20133;-73
2022/11/16 00:24:57;;;;;;;13.20;6.45;;;;;;;15.03;100.00;101304.56;2099332;28;20048;-73
2022/11/16 00:26:19;;;;;;;9.95;6.32;;;;;;;15.05;100.00;101309.00;2104253;28;20044;-73
2022/11/16 00:27:44;;;;;;;12.20;6.28;;;;;;;15.07;100.00;101304.59;2109329;28;20043;-73
2022/11/16 00:29:05;;;;;;;11.00;6.15;;;;;;;15.10;100.00;101307.25;2101730;28;20084;-73
2022/11/16 00:30:29;;;;;;;10.07;5.50;;;;;;;15.12;100.00;101300.19;2104907;28;20047;-73
2022/11/16 00:31:52;;;;;;;9.65;6.22;;;;;;;15.13;100.00;101299.31;2101518;28;20431;-73
2022/11/16 00:33:16;;;;;;;10.57;6.35;;;;;;;15.13;100.00;101301.97;2100079;28;20056;-73
2022/11/16 00:34:39;;;;;;;10.05;6.22;;;;;;;15.11;100.00;101294.84;2099050;28;20036;-73
2022/11/16 00:36:03;;;;;;;11.05;6.10;;;;;;;15.10;100.00;101301.03;2099841;28;20180;-74
2022/11/16 00:37:24;;;;;;;11.75;6.40;;;;;;;15.10;100.00;101298.38;2086035;28;20052;-73
2022/11/16 00:38:47;;;;;;;9.23;6.00;;;;;;;15.10;100.00;101298.38;2098346;28;20613;-72
2022/11/16 00:40:10;;;;;;;9.75;6.00;;;;;;;15.09;100.00;101302.84;2102446;28;20062;-73
2022/11/16 00:41:32;;;;;;;10.85;6.25;;;;;;;15.11;100.00;101298.41;2093124;28;20101;-73
2022/11/16 00:42:54;;;;;;;10.95;5.63;;;;;;;15.14;100.00;101302.84;2105332;28;20478;-73
2022/11/16 00:44:17;;;;;;;9.23;6.20;;;;;;;15.16;100.00;101304.63;2094855;28;20110;-73
2022/11/16 00:45:42;;;;;;;9.15;5.63;;;;;;;15.21;100.00;101301.13;2096116;28;20082;-74
2022/11/16 00:47:05;;;;;;;9.45;5.93;;;;;;;15.23;100.00;101296.72;2100527;28;20458;-73
2022/11/16 00:48:27;;;;;;;10.75;6.22;;;;;;;15.26;100.00;101296.72;2095936;28;20484;-73
2022/11/16 00:49:49;;;;;;;11.13;5.80;;;;;;;15.25;100.00;101295.81;2109888;28;20154;-73
2022/11/16 00:51:11;;;;;;;11.77;6.18;;;;;;;15.24;100.00;101295.81;2085165;28;20057;-73
2022/11/16 00:52:33;;;;;;;10.27;6.20;;;;;;;15.23;100.00;101294.91;2093037;28;20574;-73
2022/11/16 00:53:55;;;;;;;10.48;6.10;;;;;;;15.24;100.00;101294.03;2094700;28;20122;-73
2022/11/16 00:55:18;;;;;;;;;;;;;;;15.18;100.00;101285.13;2102157;28;20413;-74
2022/11/16 00:56:40;;;;;;;11.32;6.07;;;;;;;15.19;100.00;101284.25;2108300;28;20386;-73
2022/11/16 00:58:02;;;;;;;11.80;6.38;;;;;;;15.19;100.00;101286.91;2101279;28;20465;-73
2022/11/16 00:59:24;;;;;;;9.93;6.22;;;;;;;15.22;100.00;101278.97;2100654;28;20029;-73
2022/11/16 01:00:50;;;;;;;10.85;6.43;;;;;;;15.22;100.00;101281.63;2101171;28;20078;-73
2022/11/16 01:02:13;;;;;;;11.68;7.15;;;;;;;15.20;100.00;101281.59;2112206;28;20197;-73
2022/11/16 01:03:37;;;;;;;13.13;6.53;;;;;;;15.19;100.00;101273.63;2104017;28;20048;-73
2022/11/16 01:04:58;;;;;;;13.27;7.30;;;;;;;15.19;100.00;101278.94;2095642;28;20053;-73
2022/11/16 01:06:22;;;;;;;14.57;7.10;;;;;;;15.20;100.00;101272.75;2100871;28;20044;-73
2022/11/16 01:07:43;;;;;;;10.50;6.22;;;;;;;15.23;100.00;101270.97;2090223;28;20041;-73
2022/11/16 01:09:06;;;;;;;11.73;6.80;;;;;;;15.24;100.00;101262.09;2093808;28;20052;-73
2022/11/16 01:10:28;;;;;;;11.52;6.20;;;;;;;15.25;100.00;101268.31;2090419;28;20041;-73
2022/11/16 01:12:08;;;;;;;10.15;6.13;;;;;;;15.25;100.00;101260.34;2100271;28;20040;-73
2022/11/16 01:13:29;;;;;;;11.23;6.28;;;;;;;15.23;100.00;101257.66;2103332;28;20048;-73
2022/11/16 01:14:51;;;;;;;10.07;6.25;;;;;;;15.21;100.00;101255.91;2103556;28;20056;-73
2022/11/16 01:16:15;;;;;;;10.35;6.25;;;;;;;15.17;100.00;101249.66;2104090;28;20133;-73
2022/11/16 01:17:40;;;;;;;11.50;7.03;;;;;;;15.15;100.00;101252.34;2095684;28;20079;-73
2022/11/16 01:19:02;;;;;;;11.20;6.13;;;;;;;15.14;100.00;101257.66;2103564;28;20088;-73
2022/11/16 01:20:27;;;;;;;11.75;6.30;;;;;;;15.14;100.00;101252.31;2103920;28;20060;-74
2022/11/16 01:21:48;;;;;;;10.57;6.90;;;;;;;15.14;100.00;101257.66;2101179;28;20520;-73
2022/11/16 01:23:11;;;;;;;29.20;15.50;;;;;;;15.15;100.00;101257.66;2095392;28;20052;-73
2022/11/16 01:24:32;;;;;;;16.90;8.70;;;;;;;15.18;100.00;101256.75;2102442;28;20047;-73
2022/11/16 01:25:57;;;;;;;14.35;7.97;;;;;;;15.22;100.00;101249.72;2109672;28;20596;-74
2022/11/16 01:27:20;;;;;;;11.30;6.82;;;;;;;15.24;100.00;101246.16;2095006;28;20041;-73
2022/11/16 01:28:41;;;;;;;11.63;7.32;;;;;;;15.25;100.00;101247.03;2100202;28;20245;-73
2022/11/16 01:30:06;;;;;;;12.25;7.10;;;;;;;15.26;100.00;101246.16;2092397;28;20095;-73
2022/11/16 01:31:33;;;;;;;10.57;6.90;;;;;;;15.27;100.00;101245.28;2094738;28;20059;-73
2022/11/16 01:32:58;;;;;;;9.85;6.45;;;;;;;15.25;100.00;101250.59;2097526;28;20416;-73
2022/11/16 01:34:20;;;;;;;12.70;6.15;;;;;;;15.25;100.00;101252.34;2098108;28;20051;-74
2022/11/16 01:35:43;;;;;;;11.05;6.95;;;;;;;15.27;100.00;101250.59;2100322;28;20143;-73
2022/11/16 01:37:07;;;;;;;11.57;6.70;;;;;;;15.28;100.00;101252.41;2105380;28;20574;-73
2022/11/16 01:38:33;;;;;;;12.57;7.25;;;;;;;15.27;100.00;101250.59;2092124;28;20500;-73
2022/11/16 01:39:55;;;;;;;10.27;6.63;;;;;;;15.25;100.00;101250.59;2088255;28;20057;-73
2022/11/16 01:41:19;;;;;;;12.00;6.45;;;;;;;15.24;100.00;101240.84;2083637;28;20042;-73
2022/11/16 01:42:46;;;;;;;10.63;6.35;;;;;;;15.22;100.00;101241.72;2097886;28;20048;-73
2022/11/16 01:44:41;;;;;;;11.10;6.97;;;;;;;15.18;100.00;101238.16;2092974;28;20766;-73
2022/11/16 01:46:08;;;;;;;10.55;6.80;;;;;;;15.15;100.00;101243.47;2105248;28;20055;-73
2022/11/16 01:47:31;;;;;;;13.77;7.22;;;;;;;15.13;100.00;101243.47;2095223;28;20396;-73
2022/11/16 01:49:00;;;;;;;12.07;6.50;;;;;;;15.09;100.00;101236.34;2091252;28;20472;-73
2022/11/16 01:50:24;;;;;;;13.77;7.55;;;;;;;15.03;100.00;101230.97;2103703;28;20052;-72
2022/11/16 01:51:50;;;;;;;44.20;25.38;;;;;;;14.94;100.00;101236.28;2107506;28;20125;-73
2022/11/16 01:53:14;;;;;;;16.90;9.90;;;;;;;14.87;100.00;101222.94;2094238;28;20059;-73
2022/11/16 01:54:48;;;;;;;17.88;12.85;;;;;;;14.80;100.00;101227.31;2095694;28;20063;-72
2022/11/16 01:56:11;;;;;;;13.43;9.10;;;;;;;14.77;100.00;101224.63;2099829;28;20040;-73
2022/11/16 01:58:00;;;;;;;11.02;7.53;;;;;;;14.80;100.00;101222.00;2107617;28;20047;-73
2022/11/16 01:59:23;;;;;;;11.60;7.72;;;;;;;14.88;100.00;101230.03;2102920;28;20484;-73
2022/11/16 02:00:47;;;;;;;15.18;10.00;;;;;;;14.95;100.00;101224.75;2095714;28;20057;-73
2022/11/16 02:02:37;;;;;;;16.50;10.32;;;;;;;15.02;100.00;101220.38;2103843;28;20055;-73
2022/11/16 02:03:59;;;;;;;15.75;9.70;;;;;;;15.07;100.00;101215.94;2094461;28;20140;-73
2022/11/16 02:05:30;;;;;;;15.45;9.68;;;;;;;15.09;100.00;101223.06;2089651;28;20064;-72
2022/11/16 02:07:03;;;;;;;14.23;8.20;;;;;;;15.08;100.00;101215.97;2103008;28;20085;-73
2022/11/16 02:10:34;;;;;;;14.48;7.72;;;;;;;14.99;100.00;101209.69;2096561;28;20055;-73
2022/11/16 02:12:16;;;;;;;14.63;8.38;;;;;;;14.91;100.00;101212.31;2103048;28;20078;-73
2022/11/16 02:13:48;;;;;;;14.88;8.45;;;;;;;14.85;100.00;101214.94;2096303;28;20055;-73
2022/11/16 02:15:19;;;;;;;12.70;8.23;;;;;;;14.79;100.00;101214.91;2087171;28;20049;-73
2022/11/16 02:16:54;;;;;;;15.32;8.73;;;;;;;14.73;100.00;101204.25;2094647;28;20059;-73
2022/11/16 02:18:30;;;;;;;15.32;9.10;;;;;;;14.70;100.00;101214.88;2095643;28;20048;-73
2022/11/16 02:20:34;;;;;;;13.70;8.68;;;;;;;14.64;100.00;101209.50;2101308;28;20425;-73
2022/11/16 02:22:01;;;;;;;;;;;;;;;14.53;100.00;101205.88;2104646;28;20053;-73
2022/11/16 02:24:01;;;;;;;12.48;8.25;;;;;;;14.53;100.00;101214.75;2094172;28;19927;-73
2022/11/16 02:25:36;;;;;;;13.50;8.68;;;;;;;14.53;100.00;101211.19;2104542;28;20044;-72
2022/11/16 02:27:43;;;;;;;15.50;9.13;;;;;;;14.46;100.00;101207.63;2096867;28;20588;-72
2022/11/16 02:29:18;;;;;;;13.68;8.95;;;;;;;14.39;100.00;101196.94;2079235;28;20038;-73
2022/11/16 02:30:45;;;;;;;14.95;9.43;;;;;;;14.38;100.00;101200.47;2103948;28;20048;-73
2022/11/16 02:32:14;;;;;;;15.07;9.80;;;;;;;14.36;100.00;101196.03;2094931;28;20041;-73
2022/11/16 02:33:41;;;;;;;14.32;8.85;;;;;;;14.34;100.00;101197.78;2102820;28;20040;-73
2022/11/16 02:35:07;;;;;;;13.65;9.18;;;;;;;14.35;100.00;101190.69;2105234;28;20075;-73
2022/11/16 02:36:30;;;;;;;14.18;9.18;;;;;;;14.33;100.00;101190.66;2097794;28;20072;-73
2022/11/16 02:38:00;;;;;;;13.75;8.95;;;;;;;14.35;100.00;101196.00;2099820;28;20055;-73
2022/11/16 02:39:28;;;;;;;13.63;9.38;;;;;;;14.35;100.00;101194.25;2094868;28;20128;-72
2022/11/16 02:40:52;;;;;;;16.77;10.23;;;;;;;14.33;100.00;101190.66;2103134;28;20481;-73
2022/11/16 02:42:25;;;;;;;14.45;9.45;;;;;;;14.29;100.00;101191.53;2096741;28;20421;-72
2022/11/16 02:43:55;;;;;;;14.40;9.00;;;;;;;14.27;100.00;101192.41;2102462;28;20092;-72
2022/11/16 02:45:25;;;;;;;16.70;8.75;;;;;;;14.24;100.00;101187.94;2094920;28;20063;-73
2022/11/16 02:46:51;;;;;;;14.30;9.02;;;;;;;14.25;100.00;101191.50;2100379;28;20100;-73
2022/11/16 02:48:23;;;;;;;15.45;9.77;;;;;;;14.24;100.00;101189.75;2105032;28;20140;-72
2022/11/16 02:49:51;;;;;;;13.93;9.32;;;;;;;14.22;100.00;101189.72;2094211;28;20044;-72
2022/11/16 02:51:15;;;;;;;14.02;9.10;;;;;;;14.22;100.00;101184.41;2101404;28;20389;-73
2022/11/16 02:52:39;;;;;;;15.65;9.55;;;;;;;14.23;100.00;101182.63;2102288;28;20392;-73
2022/11/16 02:54:11;;;;;;;16.05;8.85;;;;;;;14.23;100.00;101185.28;2094090;28;20504;-73
2022/11/16 02:55:36;;;;;;;16.30;10.25;;;;;;;14.23;100.00;101182.63;2093412;28;20048;-73
2022/11/16 02:57:38;;;;;;;17.58;10.68;;;;;;;14.20;100.00;101188.81;2100063;28;20048;-73
2022/11/16 02:59:01;;;;;;;14.20;9.40;;;;;;;14.16;100.00;101192.31;2104369;28;20076;-73
2022/11/16 03:00:29;;;;;;;15.02;10.05;;;;;;;14.16;100.00;101184.38;2093505;28;20143;-72
2022/11/16 03:02:00;;;;;;;17.90;10.40;;;;;;;14.19;100.00;101181.72;2100576;28;20541;-73
2022/11/16 03:03:30;;;;;;;15.60;9.55;;;;;;;14.17;100.00;101183.50;2088186;28;20052;-72
2022/11/16 03:05:01;;;;;;;13.70;8.70;;;;;;;14.17;100.00;101182.59;2100769;28;20783;-73
2022/11/16 03:06:31;;;;;;;13.30;9.18;;;;;;;14.16;100.00;101180.81;2095183;28;20301;-73
2022/11/16 03:08:01;;;;;;;14.70;10.05;;;;;;;14.15;100.00;101182.56;2105557;28;20369;-73
2022/11/16 03:09:29;;;;;;;13.00;9.20;;;;;;;14.16;100.00;101180.81;2094537;28;20056;-73
2022/11/16 03:12:36;;;;;;;15.50;9.85;;;;;;;14.10;100.00;101178.13;2095811;28;20048;-73
2022/11/16 03:14:02;;;;;;;15.75;9.80;;;;;;;14.08;100.00;101180.75;2090030;28;20041;-73
2022/11/16 03:15:27;;;;;;;14.13;9.00;;;;;;;14.05;100.00;101174.50;2092124;28;20048;-73
2022/11/16 03:16:51;;;;;;;15.18;9.57;;;;;;;14.03;100.00;101178.94;2099527;28;20056;-73
2022/11/16 03:18:15;;;;;;;17.90;10.80;;;;;;;14.00;100.00;101177.13;2096140;28;20076;-73
2022/11/16 03:19:44;;;;;;;15.07;9.85;;;;;;;14.00;100.00;101178.91;2101876;28;20454;-73
2022/11/16 03:21:15;;;;;;;13.55;9.30;;;;;;;13.97;100.00;101177.13;2098551;28;20044;-73
2022/11/16 03:22:41;;;;;;;16.13;10.25;;;;;;;13.95;100.00;101173.56;2086672;28;20051;-73
2022/11/16 03:24:04;;;;;;;16.00;10.05;;;;;;;13.93;100.00;101175.31;2098727;28;20089;-73
2022/11/16 03:25:30;;;;;;;15.77;10.48;;;;;;;13.91;100.00;101183.25;2096370;28;20041;-73
2022/11/16 03:27:00;;;;;;;17.95;9.82;;;;;;;13.89;100.00;101166.44;2093763;28;20048;-73
2022/11/16 03:28:26;;;;;;;13.63;9.88;;;;;;;13.86;100.00;101171.72;2087594;28;20481;-73
2022/11/16 03:30:00;;;;;;;15.18;9.32;;;;;;;13.84;100.00;101176.13;2094398;28;20063;-72
2022/11/16 03:31:28;;;;;;;15.70;9.60;;;;;;;13.84;100.00;101169.94;2105511;28;20082;-73
2022/11/16 03:32:58;;;;;;;14.63;9.82;;;;;;;13.84;100.00;101170.81;2096163;28;20102;-73
2022/11/16 03:34:28;;;;;;;17.38;10.55;;;;;;;13.86;100.00;101170.81;2100094;28;20048;-73
2022/11/16 03:35:55;;;;;;;12.80;9.32;;;;;;;13.86;100.00;101171.72;2101015;28;20059;-73
2022/11/16 03:37:19;;;;;;;17.38;10.35;;;;;;;13.84;100.00;101164.63;2100655;28;20047;-73
2022/11/16 03:38:44;;;;;;;18.08;10.38;;;;;;;13.83;100.00;101168.16;2089560;28;20048;-72
2022/11/16 03:40:11;;;;;;;15.93;9.77;;;;;;;13.81;100.00;101164.59;2083782;28;20044;-73
2022/11/16 03:41:36;;;;;;;14.10;9.45;;;;;;;13.81;100.00;101162.81;2095676;28;20044;-73
2022/11/16 03:42:59;;;;;;;15.27;9.82;;;;;;;13.80;100.00;101168.13;2100114;28;20103;-73
2022/11/16 03:44:23;;;;;;;14.20;9.88;;;;;;;13.79;100.00;101168.97;2091144;28;20481;-73
2022/11/16 03:45:45;;;;;;;13.88;10.10;;;;;;;13.77;100.00;101163.69;2103397;28;20095;-73
2022/11/16 03:47:10;;;;;;;15.23;9.57;;;;;;;13.74;100.00;101162.75;2095704;28;20056;-73
2022/11/16 03:48:34;;;;;;;15.18;10.63;;;;;;;13.74;100.00;101168.06;2094182;28;20133;-73
2022/11/16 03:49:58;;;;;;;20.27;10.65;;;;;;;13.73;100.00;101166.28;2086685;28;20409;-73
2022/11/16 03:51:20;;;;;;;16.60;9.68;;;;;;;13.73;100.00;101171.56;2090650;28;20052;-73
2022/11/16 03:52:42;;;;;;;13.77;10.05;;;;;;;13.73;100.00;101168.94;2101871;28;20556;-73
2022/11/16 03:54:04;;;;;;;13.50;9.55;;;;;;;13.71;100.00;101162.75;2097955;28;20135;-72
2022/11/16 03:55:28;;;;;;;15.07;9.30;;;;;;;13.70;100.00;101161.84;2101777;28;20381;-73
2022/11/16 03:56:50;;;;;;;16.55;10.43;;;;;;;13.68;100.00;101160.94;2099157;28;20048;-72
2022/11/16 03:58:13;;;;;;;17.63;10.25;;;;;;;13.68;100.00;101162.69;2105543;28;20048;-73
2022/11/16 03:59:34;;;;;;;15.20;10.05;;;;;;;13.67;100.00;101166.22;2095758;28;20700;-73
2022/11/16 04:00:57;;;;;;;15.77;9.68;;;;;;;13.65;100.00;101163.56;2093461;28;20051;-73
2022/11/16 04:02:24;;;;;;;16.30;10.02;;;;;;;13.63;100.00;101167.97;2087244;28;20072;-73
2022/11/16 04:03:50;;;;;;;15.63;9.82;;;;;;;13.63;100.00;101167.09;2095435;28;20411;-73
2022/11/16 04:25:33;;;;;;;13.65;9.60;;;;;;;13.54;100.00;101175.81;2074580;28;20046;-73
2022/11/16 04:28:38;;;;;;;16.08;10.57;;;;;;;13.48;100.00;101184.63;2095774;28;20707;-73
2022/11/16 04:30:03;;;;;;;15.77;10.50;;;;;;;13.50;100.00;101184.63;2087746;28;20564;-72
2022/11/16 04:38:25;;;;;;;21.30;13.90;;;;;;;13.46;100.00;101180.16;2073742;28;20054;-73
2022/11/16 04:39:47;;;;;;;28.75;19.40;;;;;;;13.47;100.00;101184.59;2085047;28;20048;-73
2022/11/16 04:42:13;;;;;;;28.13;19.98;;;;;;;13.48;100.00;101184.63;2082733;28;20555;-73
2022/11/16 04:42:52;;;;;;;23.80;16.70;;;;;;;13.52;100.00;101191.72;2095613;28;20048;-73
2022/11/16 04:44:15;;;;;;;24.13;16.55;;;;;;;13.57;100.00;101192.69;2084515;28;20041;-73
2022/11/16 04:47:20;;;;;;;21.08;14.25;;;;;;;13.68;100.00;101191.88;2101193;28;20042;-73
2022/11/16 04:48:43;;;;;;;24.98;16.38;;;;;;;13.76;100.00;101198.16;2092657;28;20044;-72
2022/11/16 04:50:08;;;;;;;19.23;12.30;;;;;;;13.84;100.00;101201.78;2101708;28;20638;-73
2022/11/16 04:51:30;;;;;;;18.95;13.65;;;;;;;13.92;100.00;101189.44;2093366;28;20639;-73
2022/11/16 04:52:52;;;;;;;;;;;;;;;13.96;100.00;101196.56;2090839;28;20518;-73
2022/11/16 04:54:16;;;;;;;18.88;13.55;;;;;;;14.05;100.00;101193.09;2090427;28;20002;-72
2022/11/16 04:55:39;;;;;;;16.10;11.73;;;;;;;14.12;100.00;101187.84;2090566;28;20139;-73
2022/11/16 04:57:00;;;;;;;19.48;11.93;;;;;;;14.17;100.00;101186.16;2086882;28;20091;-73
2022/11/16 04:58:23;;;;;;;15.50;10.48;;;;;;;14.22;100.00;101191.47;2096140;28;20140;-73
2022/11/16 04:59:46;;;;;;;15.88;10.90;;;;;;;14.25;100.00;101192.38;2103328;28;20059;-73
2022/11/16 05:01:07;;;;;;;19.33;12.25;;;;;;;14.28;100.00;101194.19;2096682;28;20056;-74
2022/11/16 05:02:30;;;;;;;36.92;33.05;;;;;;;14.28;100.00;101187.09;2096175;28;20128;-73
2022/11/16 05:03:53;;;;;;;62.35;56.05;;;;;;;14.29;100.00;101193.31;2091144;28;20063;-74
2022/11/16 05:05:18;;;;;;;27.90;24.17;;;;;;;14.30;100.00;101188.00;2098095;28;20127;-73
2022/11/16 05:06:41;;;;;;;17.48;13.55;;;;;;;14.35;100.00;101185.38;2100822;28;20139;-73
2022/11/16 05:08:04;;;;;;;19.80;16.33;;;;;;;14.39;100.00;101186.31;2082876;28;20505;-73
2022/11/16 05:09:26;;;;;;;17.77;11.73;;;;;;;14.44;100.00;101187.25;2092853;28;20039;-74
2022/11/16 05:10:51;;;;;;;18.85;12.55;;;;;;;14.49;100.00;101190.81;2097306;28;20044;-74
2022/11/16 05:12:15;;;;;;;17.15;12.07;;;;;;;14.55;100.00;101190.84;2095862;28;20176;-73
2022/11/16 05:13:39;;;;;;;28.60;25.50;;;;;;;14.63;100.00;101192.69;2092880;28;20078;-73
2022/11/16 05:15:01;;;;;;;19.70;14.27;;;;;;;14.72;100.00;101191.84;2091109;28;20043;-73
2022/11/16 05:16:27;;;;;;;18.45;14.20;;;;;;;14.81;100.00;101188.34;2092838;28;20044;-73
2022/11/16 05:17:49;;;;;;;21.52;17.50;;;;;;;14.88;100.00;101183.06;2094721;28;20456;-74
2022/11/16 05:21:00;;;;;;;22.85;17.90;;;;;;;15.00;100.00;101182.22;2088737;28;20045;-73
2022/11/16 05:22:26;;;;;;;23.30;18.98;;;;;;;15.05;100.00;101181.38;2087371;28;20045;-73
2022/11/16 05:25:29;;;;;;;22.48;17.70;;;;;;;15.11;100.00;101186.72;2088270;28;20048;-73
2022/11/16 05:26:52;;;;;;;22.33;17.73;;;;;;;15.16;100.00;101178.78;2086587;28;20132;-73
2022/11/16 05:28:15;;;;;;;21.70;18.20;;;;;;;15.21;100.00;101179.66;2096822;28;20194;-73
2022/11/16 05:29:37;;;;;;;21.90;17.20;;;;;;;15.26;100.00;101180.56;2094517;28;20052;-73
2022/11/16 05:30:59;;;;;;;;;;;;;;;15.24;100.00;101176.09;2092378;28;20072;-73
2022/11/16 05:32:26;;;;;;;16.65;12.52;;;;;;;15.29;100.00;101174.38;2092343;28;19920;-73
2022/11/16 05:33:51;;;;;;;15.25;11.30;;;;;;;15.29;100.00;101171.72;2095203;28;20044;-73
2022/11/16 05:35:15;;;;;;;17.98;13.32;;;;;;;15.28;100.00;101177.91;2091909;28;20102;-73
2022/11/16 05:36:39;;;;;;;20.15;14.73;;;;;;;15.26;100.00;101175.25;2091944;28;20509;-73
2022/11/16 05:38:01;;;;;;;21.30;16.05;;;;;;;15.27;100.00;101179.69;2100121;28;20087;-73
2022/11/16 05:39:26;;;;;;;26.00;18.95;;;;;;;15.29;100.00;101180.59;2094775;28;20417;-74
2022/11/16 05:40:49;;;;;;;26.50;21.58;;;;;;;15.34;100.00;101184.13;2094306;28;20103;-73
2022/11/16 05:42:12;;;;;;;37.60;30.15;;;;;;;15.41;100.00;101179.72;2094626;28;20059;-73
2022/11/16 05:43:35;;;;;;;51.97;42.53;;;;;;;15.51;100.00;101185.06;2100948;28;20087;-73
2022/11/16 05:45:10;;;;;;;49.47;42.13;;;;;;;15.67;100.00;101188.69;2103956;28;20044;-74
2022/11/16 05:46:32;;;;;;;61.28;47.47;;;;;;;15.85;100.00;101194.03;2096505;28;20048;-73
2022/11/16 05:47:56;;;;;;;44.00;32.17;;;;;;;16.01;100.00;101194.03;2094760;28;20048;-73
2022/11/16 05:49:18;;;;;;;19.05;12.32;;;;;;;16.11;100.00;101194.03;2099922;28;20433;-73
2022/11/16 05:50:41;;;;;;;28.48;18.83;;;;;;;16.14;100.00;101194.03;2103552;28;20056;-74
2022/11/16 05:52:10;;;;;;;26.95;21.48;;;;;;;16.11;100.00;101185.16;2088981;28;20397;-74
2022/11/16 05:53:33;;;;;;;26.13;20.38;;;;;;;16.07;100.00;101191.38;2089356;28;20136;-74
2022/11/16 05:54:56;;;;;;;37.25;32.50;;;;;;;16.07;100.00;101188.72;2088214;28;20060;-74
2022/11/16 05:56:17;;;;;;;29.38;25.52;;;;;;;16.10;100.00;101194.03;2092083;28;20041;-73
2022/11/16 05:57:40;;;;;;;;;;;;;;;16.08;100.00;101191.34;2094108;28;20094;-73
2022/11/16 05:59:03;;;;;;;;;;;;;;;16.11;100.00;101190.47;2100127;28;19978;-74
2022/11/16 06:00:24;;;;;;;30.20;27.00;;;;;;;16.22;100.00;101194.91;2105542;28;19924;-73
2022/11/16 06:01:50;;;;;;;18.40;14.73;;;;;;;16.33;100.00;101192.25;2096868;28;20064;-74
2022/11/16 06:03:12;;;;;;;17.27;11.35;;;;;;;16.45;100.00;101196.66;2090136;28;20036;-73
2022/11/16 06:04:34;;;;;;;13.18;8.82;;;;;;;16.54;100.00;101202.84;2097334;28;20048;-73
2022/11/16 06:05:56;;;;;;;21.90;18.95;;;;;;;16.62;100.00;101198.44;2095457;28;20141;-73
2022/11/16 06:07:22;;;;;;;20.25;17.83;;;;;;;16.70;100.00;101193.97;2093303;28;20036;-73
2022/11/16 06:08:45;;;;;;;19.08;15.95;;;;;;;16.77;100.00;101197.53;2102405;28;20600;-73
2022/11/16 06:10:13;;;;;;;23.70;19.80;;;;;;;16.89;100.00;101201.94;2095062;28;20060;-73
2022/11/16 06:11:37;;;;;;;22.90;18.80;;;;;;;17.04;100.00;101192.09;2098950;28;20097;-73
2022/11/16 06:13:00;;;;;;;27.13;24.40;;;;;;;17.22;100.00;101199.13;2095021;28;20136;-73
2022/11/16 06:14:23;;;;;;;27.23;24.42;;;;;;;17.41;100.00;101190.13;2094469;28;20503;-74
2022/11/16 06:15:45;;;;;;;34.42;31.05;;;;;;;17.59;100.00;101193.63;2090757;28;20293;-73
2022/11/16 06:17:09;;;;;;;47.88;42.80;;;;;;;17.71;100.00;101199.78;2095088;28;20059;-74
2022/11/16 06:18:30;;;;;;;52.83;47.70;;;;;;;17.87;100.00;101201.44;2087411;28;21722;-74
2022/11/16 06:19:53;;;;;;;49.15;44.45;;;;;;;18.05;100.00;101189.72;2095940;28;20040;-73
2022/11/16 06:21:16;;;;;;;45.75;41.22;;;;;;;18.23;100.00;101196.72;2106748;28;20051;-73
2022/11/16 06:22:40;;;;;;;41.72;37.45;;;;;;;18.35;100.00;101190.38;2101255;28;20059;-74
2022/11/16 06:24:07;;;;;;;38.40;34.47;;;;;;;18.41;100.00;101191.19;2090619;28;20068;-74
2022/11/16 06:25:30;;;;;;;44.40;40.17;;;;;;;18.48;100.00;101192.03;2099465;28;20127;-74
2022/11/16 06:26:53;;;;;;;43.53;39.25;;;;;;;18.52;100.00;101196.41;2094912;28;20102;-73
2022/11/16 06:28:14;;;;;;;42.15;38.05;;;;;;;18.55;100.00;101188.38;2093443;28;20078;-74
2022/11/16 06:29:37;;;;;;;41.28;37.30;;;;;;;18.63;100.00;101184.78;2097769;28;20044;-75
2022/11/16 06:31:00;;;;;;;41.97;37.80;;;;;;;18.74;100.00;101187.31;2094103;28;20148;-74
2022/11/16 06:32:26;;;;;;;35.28;31.90;;;;;;;18.83;100.00;101181.88;2094276;28;20044;-74
2022/11/16 06:33:47;;;;;;;34.70;31.00;;;;;;;18.92;100.00;101187.09;2101183;28;20148;-75
2022/11/16 06:35:15;;;;;;;34.65;30.90;;;;;;;18.97;100.00;101185.25;2094691;28;20044;-74
2022/11/16 06:36:38;;;;;;;36.58;32.85;;;;;;;19.02;100.00;101187.88;2091231;28;20071;-74
2022/11/16 06:38:01;;;;;;;36.95;33.35;;;;;;;19.05;100.00;101182.47;2102561;28;20104;-74
2022/11/16 06:39:24;;;;;;;35.20;31.60;;;;;;;19.12;100.00;101181.50;2094181;28;20040;-74
2022/11/16 06:40:50;;;;;;;30.58;27.35;;;;;;;19.30;100.00;101180.38;2099491;28;20074;-74
2022/11/16 06:42:13;;;;;;;17.92;16.10;;;;;;;19.45;100.00;101174.81;2094456;28;20037;-75
2022/11/16 06:43:35;;;;;;;17.15;14.82;;;;;;;19.52;100.00;101168.50;2089455;28;20049;-74
2022/11/16 06:44:58;;;;;;;15.68;12.80;;;;;;;19.65;100.00;101175.44;2094004;28;20103;-75
2022/11/16 06:46:25;;;;;;;11.95;9.02;;;;;;;19.83;100.00;101164.44;2093993;28;20044;-75
2022/11/16 06:47:48;;;;;;;18.00;7.93;;;;;;;20.07;100.00;101159.59;2099012;28;20471;-75
2022/11/16 06:49:11;;;;;;;7.82;5.65;;;;;;;20.30;100.00;101165.44;2096013;28;20048;-75
2022/11/16 06:50:34;;;;;;;10.93;5.45;;;;;;;20.44;99.85;101167.91;2098564;28;20128;-75
2022/11/16 06:51:57;;;;;;;8.15;4.82;;;;;;;20.46;98.20;101158.91;2092557;28;20070;-76
2022/11/16 06:53:21;;;;;;;7.13;4.45;;;;;;;20.41;96.69;101162.59;2099785;28;20051;-75
2022/11/16 06:54:44;;;;;;;7.88;5.15;;;;;;;20.36;96.01;101167.13;2100099;28;20044;-75
2022/11/16 06:56:08;;;;;;;7.30;4.38;;;;;;;20.29;95.98;101153.81;2092719;28;20044;-75
2022/11/16 06:57:38;;;;;;;7.47;4.40;;;;;;;20.22;95.88;101151.25;2101821;28;20048;-75
2022/11/16 06:59:01;;;;;;;7.68;4.82;;;;;;;20.18;96.82;101157.59;2093276;28;20095;-75
2022/11/16 07:00:25;;;;;;;8.95;4.78;;;;;;;20.17;97.33;101154.03;2100214;28;20097;-76
2022/11/16 07:01:47;;;;;;;8.98;4.97;;;;;;;20.11;96.64;101158.63;2085641;28;20048;-75
2022/11/16 07:03:09;;;;;;;9.77;4.72;;;;;;;20.01;95.96;101154.34;2085770;28;20048;-75
2022/11/16 07:04:32;;;;;;;8.65;4.57;;;;;;;19.93;96.18;101146.41;2091035;28;20051;-75
2022/11/16 07:05:54;;;;;;;8.68;5.47;;;;;;;19.90;96.29;101144.66;2088983;28;20142;-74